sensor_id;sensor_type;location;lat;lon;timestamp;P1;P2;P0
55076;PMS7003;40971;44.702;11.030;2024-03-07T00:09:33;22.43;21.71;13.43
55076;PMS7003;40971;44.702;11.030;2024-03-07T00:19:35;26.33;24.00;15.00
55076;PMS7003;40971;44.702;11.030;2024-03-07T00:29:37;23.67;23.67;16.67
55076;PMS7003;40971;44.702;11.030;2024-03-07T00:39:40;24.14;24.00;15.43
55076;PMS7003;40971;44.702;11.030;2024-03-07T00:49:42;19.00;18.00;13.67
55076;PMS7003;40971;44.702;11.030;2024-03-07T00:59:46;24.57;23.71;14.71
55076;PMS7003;40971;44.702;11.030;2024-03-07T01:09:49;19.00;18.67;12.00
55076;PMS7003;40971;44.702;11.030;2024-03-07T01:19:52;18.33;18.33;13.00
55076;PMS7003;40971;44.702;11.030;2024-03-07T01:29:55;21.71;20.71;15.57
55076;PMS7003;40971;44.702;11.030;2024-03-07T01:39:56;32.33;30.00;19.67
55076;PMS7003;40971;44.702;11.030;2024-03-07T01:49:57;29.33;27.33;17.33
55076;PMS7003;40971;44.702;11.030;2024-03-07T02:00:00;29.33;27.67;18.00
55076;PMS7003;40971;44.702;11.030;2024-03-07T02:10:08;29.67;28.67;15.67
55076;PMS7003;40971;44.702;11.030;2024-03-07T02:20:11;23.33;23.33;16.00
55076;PMS7003;40971;44.702;11.030;2024-03-07T02:30:14;23.43;23.14;16.43
55076;PMS7003;40971;44.702;11.030;2024-03-07T02:40:15;28.00;27.00;16.00
55076;PMS7003;40971;44.702;11.030;2024-03-07T02:50:19;26.33;24.67;16.00
55076;PMS7003;40971;44.702;11.030;2024-03-07T03:00:23;27.00;26.00;15.00
55076;PMS7003;40971;44.702;11.030;2024-03-07T03:10:28;29.00;24.67;18.00
55076;PMS7003;40971;44.702;11.030;2024-03-07T03:20:34;26.71;24.57;15.86
55076;PMS7003;40971;44.702;11.030;2024-03-07T03:30:42;27.00;25.57;17.14
55076;PMS7003;40971;44.702;11.030;2024-03-07T03:40:44;23.33;21.00;13.00
55076;PMS7003;40971;44.702;11.030;2024-03-07T03:50:46;28.00;28.00;18.67
55076;PMS7003;40971;44.702;11.030;2024-03-07T04:00:49;28.00;26.43;15.57
55076;PMS7003;40971;44.702;11.030;2024-03-07T04:10:50;22.00;21.67;13.00
55076;PMS7003;40971;44.702;11.030;2024-03-07T04:20:52;24.00;24.00;16.00
55076;PMS7003;40971;44.702;11.030;2024-03-07T04:30:55;27.00;27.00;18.00
55076;PMS7003;40971;44.702;11.030;2024-03-07T04:40:58;32.33;29.67;16.00
55076;PMS7003;40971;44.702;11.030;2024-03-07T04:51:01;28.67;27.33;16.67
55076;PMS7003;40971;44.702;11.030;2024-03-07T05:01:02;33.00;33.00;21.33
55076;PMS7003;40971;44.702;11.030;2024-03-07T05:11:05;27.33;27.33;17.33
55076;PMS7003;40971;44.702;11.030;2024-03-07T05:21:07;38.50;33.50;19.50
55076;PMS7003;40971;44.702;11.030;2024-03-07T05:31:28;38.00;35.75;21.00
55076;PMS7003;40971;44.702;11.030;2024-03-07T05:41:29;36.00;35.00;20.00
55076;PMS7003;40971;44.702;11.030;2024-03-07T05:51:30;27.33;26.33;16.00
55076;PMS7003;40971;44.702;11.030;2024-03-07T06:01:33;26.33;24.83;13.17
55076;PMS7003;40971;44.702;11.030;2024-03-07T06:11:36;28.00;27.33;15.00
55076;PMS7003;40971;44.702;11.030;2024-03-07T06:21:39;31.67;31.67;21.00
55076;PMS7003;40971;44.702;11.030;2024-03-07T06:31:42;28.67;26.67;18.00
55076;PMS7003;40971;44.702;11.030;2024-03-07T06:41:44;35.00;32.40;17.80
55076;PMS7003;40971;44.702;11.030;2024-03-07T06:51:48;41.20;41.00;24.00
55076;PMS7003;40971;44.702;11.030;2024-03-07T07:01:49;41.33;36.67;22.67
55076;PMS7003;40971;44.702;11.030;2024-03-07T07:11:52;38.60;34.60;20.80
55076;PMS7003;40971;44.702;11.030;2024-03-07T07:21:53;31.00;30.00;21.00
55076;PMS7003;40971;44.702;11.030;2024-03-07T07:31:55;39.00;36.00;24.00
55076;PMS7003;40971;44.702;11.030;2024-03-07T07:41:58;37.50;35.83;21.50
55076;PMS7003;40971;44.702;11.030;2024-03-07T07:52:00;27.50;27.50;18.50
55076;PMS7003;40971;44.702;11.030;2024-03-07T08:02:05;33.89;33.33;18.78
55076;PMS7003;40971;44.702;11.030;2024-03-07T08:12:07;28.00;27.00;15.00
55076;PMS7003;40971;44.702;11.030;2024-03-07T08:22:11;22.67;21.67;14.67
55076;PMS7003;40971;44.702;11.030;2024-03-07T08:32:12;26.00;23.00;15.00
55076;PMS7003;40971;44.702;11.030;2024-03-07T08:42:13;21.67;21.67;14.00
55076;PMS7003;40971;44.702;11.030;2024-03-07T08:52:17;24.00;22.00;15.00
55076;PMS7003;40971;44.702;11.030;2024-03-07T09:02:20;21.80;20.40;13.20
55076;PMS7003;40971;44.702;11.030;2024-03-07T09:12:21;15.00;15.00;11.00
55076;PMS7003;40971;44.702;11.030;2024-03-07T09:22:24;23.00;21.86;13.43
55076;PMS7003;40971;44.702;11.030;2024-03-07T09:32:26;16.00;15.33;11.67
55076;PMS7003;40971;44.702;11.030;2024-03-07T09:42:31;16.29;16.29;8.57
55076;PMS7003;40971;44.702;11.030;2024-03-07T09:52:35;16.00;14.33;10.67
55076;PMS7003;40971;44.702;11.030;2024-03-07T10:02:38;12.17;12.17;7.67
55076;PMS7003;40971;44.702;11.030;2024-03-07T10:12:41;8.00;8.00;5.50
55076;PMS7003;40971;44.702;11.030;2024-03-07T10:22:42;9.00;9.00;7.00
55076;PMS7003;40971;44.702;11.030;2024-03-07T10:32:43;5.67;5.67;2.00
55076;PMS7003;40971;44.702;11.030;2024-03-07T10:42:46;4.50;4.50;1.50
55076;PMS7003;40971;44.702;11.030;2024-03-07T10:52:58;8.00;8.00;5.00
55076;PMS7003;40971;44.702;11.030;2024-03-07T11:03:04;8.00;6.00;4.00
55076;PMS7003;40971;44.702;11.030;2024-03-07T11:13:08;6.00;6.00;4.00
55076;PMS7003;40971;44.702;11.030;2024-03-07T11:23:29;7.00;6.00;4.00
55076;PMS7003;40971;44.702;11.030;2024-03-07T11:33:33;9.00;8.00;5.00
55076;PMS7003;40971;44.702;11.030;2024-03-07T11:43:34;5.50;5.00;3.00
55076;PMS7003;40971;44.702;11.030;2024-03-07T11:53:37;3.00;3.00;1.00
55076;PMS7003;40971;44.702;11.030;2024-03-07T12:03:38;3.00;3.00;2.00
55076;PMS7003;40971;44.702;11.030;2024-03-07T12:13:40;3.00;2.00;2.00
55076;PMS7003;40971;44.702;11.030;2024-03-07T12:23:41;5.00;5.00;2.00
55076;PMS7003;40971;44.702;11.030;2024-03-07T12:33:43;4.00;4.00;2.00
55076;PMS7003;40971;44.702;11.030;2024-03-07T12:43:47;6.00;6.00;5.00
55076;PMS7003;40971;44.702;11.030;2024-03-07T12:53:49;5.50;5.00;2.50
55076;PMS7003;40971;44.702;11.030;2024-03-07T13:03:50;5.67;3.67;2.00
55076;PMS7003;40971;44.702;11.030;2024-03-07T13:13:51;5.00;5.00;3.00
55076;PMS7003;40971;44.702;11.030;2024-03-07T13:23:52;6.00;6.00;3.00
55076;PMS7003;40971;44.702;11.030;2024-03-07T13:33:54;6.00;6.00;3.67
55076;PMS7003;40971;44.702;11.030;2024-03-07T13:43:55;8.00;6.00;4.00
55076;PMS7003;40971;44.702;11.030;2024-03-07T13:53:57;9.00;9.00;5.00
55076;PMS7003;40971;44.702;11.030;2024-03-07T14:46:01;9.50;9.00;6.00
55076;PMS7003;40971;44.702;11.030;2024-03-07T14:56:03;6.00;6.00;4.60
55076;PMS7003;40971;44.702;11.030;2024-03-07T15:06:05;7.00;7.00;5.00
55076;PMS7003;40971;44.702;11.030;2024-03-07T15:16:08;2.00;2.00;1.00
55076;PMS7003;40971;44.702;11.030;2024-03-07T15:26:10;4.33;4.33;2.67
55076;PMS7003;40971;44.702;11.030;2024-03-07T15:36:12;5.00;5.00;4.00
55076;PMS7003;40971;44.702;11.030;2024-03-07T15:46:14;5.00;5.00;2.00
55076;PMS7003;40971;44.702;11.030;2024-03-07T15:56:18;6.00;6.00;3.00
55076;PMS7003;40971;44.702;11.030;2024-03-07T16:06:20;6.00;5.50;4.50
55076;PMS7003;40971;44.702;11.030;2024-03-07T16:16:22;5.00;5.00;4.00
55076;PMS7003;40971;44.702;11.030;2024-03-07T16:26:23;4.33;4.33;2.00
55076;PMS7003;40971;44.702;11.030;2024-03-07T16:36:25;6.00;6.00;4.00
55076;PMS7003;40971;44.702;11.030;2024-03-07T16:46:26;10.50;10.50;7.00
55076;PMS7003;40971;44.702;11.030;2024-03-07T16:56:28;6.00;6.00;5.00
55076;PMS7003;40971;44.702;11.030;2024-03-07T17:06:29;8.50;8.00;7.00
55076;PMS7003;40971;44.702;11.030;2024-03-07T17:16:31;7.00;7.00;5.00
55076;PMS7003;40971;44.702;11.030;2024-03-07T17:26:32;20.00;18.00;10.67
55076;PMS7003;40971;44.702;11.030;2024-03-07T17:36:37;16.43;16.43;10.00
55076;PMS7003;40971;44.702;11.030;2024-03-07T17:46:41;18.86;17.00;12.43
55076;PMS7003;40971;44.702;11.030;2024-03-07T17:56:43;16.67;16.00;11.00
55076;PMS7003;40971;44.702;11.030;2024-03-07T18:06:44;22.33;21.33;11.67
55076;PMS7003;40971;44.702;11.030;2024-03-07T18:16:48;22.43;20.86;14.29
55076;PMS7003;40971;44.702;11.030;2024-03-07T18:26:55;26.67;23.33;16.67
55076;PMS7003;40971;44.702;11.030;2024-03-07T18:36:57;17.67;17.67;13.00
55076;PMS7003;40971;44.702;11.030;2024-03-07T18:46:58;19.00;19.00;10.00
55076;PMS7003;40971;44.702;11.030;2024-03-07T18:57:04;18.71;18.71;12.00
55076;PMS7003;40971;44.702;11.030;2024-03-07T19:07:10;19.29;16.86;11.00
55076;PMS7003;40971;44.702;11.030;2024-03-07T19:17:12;22.67;19.67;13.00
55076;PMS7003;40971;44.702;11.030;2024-03-07T19:27:15;19.67;19.00;13.00
55076;PMS7003;40971;44.702;11.030;2024-03-07T19:37:19;20.29;19.14;13.00
55076;PMS7003;40971;44.702;11.030;2024-03-07T19:47:23;18.43;18.43;11.14
55076;PMS7003;40971;44.702;11.030;2024-03-07T19:57:26;24.00;22.14;12.14
55076;PMS7003;40971;44.702;11.030;2024-03-07T20:07:29;24.00;21.67;15.00
55076;PMS7003;40971;44.702;11.030;2024-03-07T20:17:32;22.29;22.29;15.00
55076;PMS7003;40971;44.702;11.030;2024-03-07T20:27:35;23.29;18.71;12.71
55076;PMS7003;40971;44.702;11.030;2024-03-07T20:37:39;15.00;14.67;7.67
55076;PMS7003;40971;44.702;11.030;2024-03-07T20:47:43;30.67;26.33;13.00
55076;PMS7003;40971;44.702;11.030;2024-03-07T20:57:49;23.43;22.14;13.43
55076;PMS7003;40971;44.702;11.030;2024-03-07T21:07:52;26.33;26.33;13.00
55076;PMS7003;40971;44.702;11.030;2024-03-07T21:17:54;28.67;25.67;16.00
55076;PMS7003;40971;44.702;11.030;2024-03-07T21:27:56;27.80;23.80;16.00
55076;PMS7003;40971;44.702;11.030;2024-03-07T21:37:58;33.67;29.67;18.00
55076;PMS7003;40971;44.702;11.030;2024-03-07T21:48:00;22.67;22.67;13.00
55076;PMS7003;40971;44.702;11.030;2024-03-07T21:58:03;23.33;21.33;15.00
55076;PMS7003;40971;44.702;11.030;2024-03-07T22:08:04;30.60;27.60;14.20
55076;PMS7003;40971;44.702;11.030;2024-03-07T22:18:07;27.67;27.67;17.33
55076;PMS7003;40971;44.702;11.030;2024-03-07T22:28:10;24.71;24.71;14.71
55076;PMS7003;40971;44.702;11.030;2024-03-07T22:38:13;28.00;26.57;15.29
55076;PMS7003;40971;44.702;11.030;2024-03-07T22:48:16;26.33;24.67;15.67
55076;PMS7003;40971;44.702;11.030;2024-03-07T22:58:19;26.57;24.00;14.86
55076;PMS7003;40971;44.702;11.030;2024-03-07T23:08:20;31.00;30.33;18.00
55076;PMS7003;40971;44.702;11.030;2024-03-07T23:18:24;30.57;25.43;13.57
55076;PMS7003;40971;44.702;11.030;2024-03-07T23:28:25;31.00;27.33;16.67
55076;PMS7003;40971;44.702;11.030;2024-03-07T23:38:29;31.25;29.00;18.00
55076;PMS7003;40971;44.702;11.030;2024-03-07T23:48:31;25.00;25.00;15.67
55076;PMS7003;40971;44.702;11.030;2024-03-07T23:58:32;24.67;19.67;13.00
